Bethel, AK

5:39 AM AKST on December 05, 2016 (GMT -0900)
Bethel | | Change Station

Elev 148 ft 60.79 °N, 161.83 °W | Updated 46 minutes ago

Mostly Cloudy
Mostly Cloudy
-3 °F
Feels Like -25 °F
N
18
Wind Variable Wind from NE

Today
High -- | Low -- °F
--% Chance of Precip.
Yesterday
High -- | Low -- °F
Precip. -- in
Pressure 30.25 in
Visibility 10.0 miles
Clouds Mostly Cloudy 11000 ft
Windchill -25 °F
Dew Point -10 °F
Humidity 72%
Rainfall 0.00 in
Snow Depth Not available.
10:38 AM 4:37 PM
Waxing Crescent, 32% visible
METAR PABE 051353Z 04016KT 10SM BKN110 M19/M23 A3024 RMK AO2 SLP244 T11941233 $
Pressure 30.25 in
Visibility 10.0 miles
Clouds Mostly Cloudy 11000 ft
Windchill -25 °F
Dew Point -10 °F
Humidity 72%
Rainfall 0.00 in
Snow Depth Not available.
10:38 AM 4:37 PM
Waxing Crescent, 32% visible
METAR PABE 051353Z 04016KT 10SM BKN110 M19/M23 A3024 RMK AO2 SLP244 T11941233 $

10-Day Weather Forecast

Almanac

Astronomy

Dec. 05, 2016 Rise Set
Actual Time
Civil Twilight
Nautical Twilight
Astronomical Twilight
Moon
Length of Visible Light
Length of Day
Tomorrow will be .
, % of the Moon is Illuminated

Today's Extremes

State Highs State Lows

Community

WunderPhotos

Upload Photos

1,955,780 photos uploaded!

WunderBlog® & News

Nearby

Air Quality

  Air Quality AQ Index Pollutant
Not available.

Snow Depth

Station Depth Elevation

Earthquake Activity

City Distance Mag. Time & Date
Minimum magnitude displayed is 2.5.

Coastal Water Temperatures

Place Temperature

Stations

Nearby Weather Stations

Station Location Temp. Windchill Dew Point Humidity Wind Precip. Elev Updated Type
                   

Watches & Warnings

There are currently no watches in effect.